Peenemünde Airport

EDCP · Mecklenburg-Vorpommern, Alemanha

História da METAR EDCP · Peenemünde Airport

Abaixo você vê METARs dos últimos dias. Selecione um ano para navegar pelos METARs mais antigos, a partir do ano 2007.

15 de abril de 2024

Hora Código Clima Temp. Visibilidade Tecto Vento METAR/SPECI
09:50
M
9 °C 10 km+ 2.400 ft 230° 230° 8 kt METAR EDAH 150750Z 23008KT 200V260 9999 SCT017 BKN024 BKN040 09/04 Q1010
09:20
V
8 °C 10 km+ - 260° 260° 6 kt METAR EDAH 150720Z 26006KT 9999 SCT016 08/04 Q1010
08:50
V
8 °C 10 km+ - 280° 280° 8 kt METAR EDAH 150650Z 28008KT CAVOK 08/04 Q1010
08:20
V
8 °C 10 km+ - 270° 270° 9 kt METAR EDAH 150620Z AUTO 27009KT 9999 // NCD 08/04 Q1011
07:50
V
7 °C 10 km+ - 260° 260° 8 kt METAR EDAH 150550Z AUTO 26008KT 9999 // NCD 07/04 Q1011
07:20
V
6 °C 10 km+ - 260° 260° 5 kt METAR EDAH 150520Z AUTO 26005KT 9999 // NCD 06/04 Q1011
06:50
V
4 °C 10 km+ - 280° 280° 5 kt METAR EDAH 150450Z AUTO 28005KT 9999 // NCD 04/03 Q1011
06:20
V
4 °C 10 km+ - 280° 280° 3 kt METAR EDAH 150420Z AUTO 28003KT 9999 // FEW150/// 04/03 Q1011
05:50
V
5 °C 10 km+ 15.000 ft 270° 270° 4 kt METAR EDAH 150350Z AUTO 27004KT 9999 // OVC150/// 05/03 Q1011
05:20
V
5 °C 10 km+ 15.000 ft 280° 280° 5 kt METAR EDAH 150320Z AUTO 28005KT 9999 // OVC150/// 05/03 Q1011
04:50
V
6 °C 10 km+ 16.000 ft 270° 270° 7 kt METAR EDAH 150250Z AUTO 27007KT 9999 // OVC160/// 06/03 Q1012
04:20
V
6 °C 10 km+ 17.000 ft 270° 270° 8 kt METAR EDAH 150220Z AUTO 27008KT 9999 // OVC170/// 06/04 Q1012
03:50
V
6 °C 10 km+ 18.000 ft 270° 270° 7 kt METAR EDAH 150150Z AUTO 27007KT 9999 // OVC180/// 06/03 Q1012
03:20
V
6 °C 10 km+ 19.000 ft 270° 270° 4 kt METAR EDAH 150120Z AUTO 27004KT 9999 // OVC190/// 06/04 Q1012
02:50
V
6 °C 10 km+ 20.000 ft 290° 290° 5 kt METAR EDAH 150050Z AUTO 29005KT 9999 // OVC200/// 06/03 Q1013
02:20
V
6 °C 10 km+ 20.000 ft 290° 290° 6 kt METAR EDAH 150020Z AUTO 29006KT 9999 // BKN200/// 06/03 Q1013
01:50
V
7 °C 10 km+ - 290° 290° 7 kt METAR EDAH 142350Z AUTO 29007KT 9999 // SCT190/// 07/03 Q1013
01:20
V
7 °C 10 km+ 19.000 ft 280° 280° 10 kt METAR EDAH 142320Z AUTO 28010KT 9999 // BKN190/// 07/03 Q1013
00:50
V
6 °C 10 km+ 20.000 ft 280° 280° 8 kt METAR EDAH 142250Z AUTO 28008KT 9999 // BKN200/// 06/03 Q1014
00:20
V
8 °C 10 km+ 22.000 ft 280° 280° 10 kt METAR EDAH 142220Z AUTO 28010KT 9999 // BKN220/// 08/02 Q1014

14 de abril de 2024

Hora Código Clima Temp. Visibilidade Tecto Vento METAR/SPECI
23:50
V
7 °C 10 km+ 22.000 ft 280° 280° 10 kt METAR EDAH 142150Z AUTO 28010KT 9999 // BKN220/// 07/02 Q1014
23:20
V
7 °C 10 km+ - 270° 270° 8 kt METAR EDAH 142120Z AUTO 27008KT 9999 // FEW230/// 07/02 Q1015
22:50
V
7 °C 10 km+ - 270° 270° 7 kt METAR EDAH 142050Z AUTO 27007KT 9999 // SCT240/// 07/02 Q1015
22:20
V
8 °C 10 km+ - 280° 280° 10 kt METAR EDAH 142020Z AUTO 28010KT 9999 // NCD 08/01 Q1015
21:50
V
7 °C 10 km+ - 270° 270° 8 kt METAR EDAH 141950Z AUTO 27008KT 9999 // NCD 07/01 Q1016
21:20
V
8 °C 10 km+ - 270° 270° 10 kt METAR EDAH 141920Z AUTO 27010KT 9999 // NCD 08/00 Q1016
20:50
V
9 °C 10 km+ - 280° 280° 11 kt METAR EDAH 141850Z AUTO 28011KT 9999 // NCD 09/00 Q1016
20:20
V
10 °C 10 km+ - 280° 280° 10 kt METAR EDAH 141820Z AUTO 28010KT 9999 // NCD 10/01 Q1016
19:50
V
11 °C 10 km+ - 290° 290° 10 kt METAR EDAH 141750Z AUTO 29010KT 9999 // NCD 11/01 Q1016
19:20
V
12 °C 10 km+ - 290° 290° 13 kt METAR EDAH 141720Z AUTO 29013KT 9999 // NCD 12/M01 Q1016
18:50
V
12 °C 10 km+ - 290° 290° 14 kt METAR EDAH 141650Z 29014KT CAVOK 12/M00 Q1016
18:20
V
13 °C 10 km+ - 290° 290° 15 kt METAR EDAH 141620Z 29015KT CAVOK 13/01 Q1016
17:50
V
13 °C 10 km+ - 290° 290° 15 kt METAR EDAH 141550Z 29015KT 270V350 CAVOK 13/01 Q1016
17:20
V
13 °C 10 km+ - 280° 280° 19 kt METAR EDAH 141520Z 28019KT CAVOK 13/01 Q1016
16:50
V
15 °C 10 km+ - 270° 270° 20 kt METAR EDAH 141450Z 27020KT CAVOK 15/01 Q1016
16:20
V
15 °C 10 km+ - 280° 280° 17 kt METAR EDAH 141420Z 28017KT CAVOK 15/01 Q1016
15:50
V
14 °C 10 km+ - 280° 280° 20 kt METAR EDAH 141350Z 28020KT CAVOK 14/02 Q1016
15:20
V
15 °C 10 km+ - 270° 270° 18 kt METAR EDAH 141320Z 27018KT 250V310 CAVOK 15/02 Q1016
14:50
V
15 °C 10 km+ - 270° 270° 21 kt METAR EDAH 141250Z 27021KT CAVOK 15/01 Q1016
14:20
V
15 °C 10 km+ - 270° 270° 22 kt METAR EDAH 141220Z 27022KT CAVOK 15/01 Q1016
13:50
V
14 °C 10 km+ - 280° 280° 19 kt METAR EDAH 141150Z 28019KT CAVOK 14/01 Q1016
13:20
V
14 °C 10 km+ - 280° 280° 20 kt METAR EDAH 141120Z 28020KT CAVOK 14/01 Q1016
12:50
V
14 °C 10 km+ - 270° 270° 22 kt METAR EDAH 141050Z 27022KT 9999 FEW048 14/02 Q1016
12:20
V
13 °C 10 km+ - 270° 270° 19 kt METAR EDAH 141020Z 27019KT 9999 FEW043 13/02 Q1016
11:50
V
13 °C 10 km+ - 270° 270° 18 - 28 kt METAR EDAH 140950Z 27018G28KT 9999 FEW048 13/02 Q1016
11:20
V
13 °C 10 km+ - 280° 280° 18 kt METAR EDAH 140920Z 28018KT CAVOK 13/03 Q1015
10:50
V
13 °C 10 km+ - 290° 290° 17 kt METAR EDAH 140850Z 29017KT 9999 FEW042 13/01 Q1015
10:20
V
12 °C 10 km+ - 280° 280° 18 kt METAR EDAH 140820Z 28018KT CAVOK 12/03 Q1015
09:50
V
12 °C 10 km+ - 280° 280° 21 kt METAR EDAH 140750Z 28021KT CAVOK 12/02 Q1015
09:20
V
13 °C 10 km+ - 290° 290° 18 - 28 kt METAR EDAH 140720Z 29018G28KT CAVOK 13/03 Q1014
08:50
V
13 °C 10 km+ - 290° 290° 20 - 31 kt METAR EDAH 140650Z 29020G31KT 9999 FEW033 13/04 Q1014
08:20
V
13 °C 10 km+ - 290° 290° 15 kt METAR EDAH 140620Z AUTO 29015KT 9999 // FEW023/// SCT075/// 13/08 Q1013
07:50
V
13 °C 10 km+ - 270° 270° 16 kt METAR EDAH 140550Z AUTO 27016KT 9999 // FEW024/// SCT074/// 13/09 Q1013
07:20
V
13 °C 10 km+ - 280° 280° 14 kt METAR EDAH 140520Z AUTO 28014KT 9999 // FEW072/// 13/09 Q1013
06:50
V
13 °C 10 km+ - 280° 280° 14 kt METAR EDAH 140450Z AUTO 28014KT 9999 // FEW023/// SCT077/// 13/09 Q1012
06:20
V
14 °C 10 km+ 7.500 ft 280° 280° 18 kt METAR EDAH 140420Z AUTO 28018KT 9999 // FEW063/// OVC075/// 14/09 Q1012
05:50
V
14 °C 10 km+ 13.000 ft 280° 280° 17 kt METAR EDAH 140350Z AUTO 28017KT 9999 // SCT076/// BKN130/// OVC240/// 14/10 Q1012
05:20
V
15 °C 10 km+ 12.000 ft 290° 290° 14 kt METAR EDAH 140320Z AUTO 29014KT 9999 // BKN120/// OVC240/// 15/10 Q1011
04:50
V
15 °C 10 km+ 12.000 ft 290° 290° 13 kt METAR EDAH 140250Z AUTO 29013KT 9999 // FEW100/// BKN120/// OVC140/// 15/10 Q1011
04:20
V
16 °C 10 km+ 9.800 ft 280° 280° 14 kt METAR EDAH 140220Z AUTO 28014KT 9999 // FEW024/// BKN098/// OVC140/// 16/11 Q1011
03:50
V
17 °C 10 km+ 9.800 ft 270° 270° 13 kt METAR EDAH 140150Z AUTO 27013KT 9999 // FEW030/// BKN098/// BKN140/// 17/12 Q1011
03:20
V
17 °C 10 km+ 19.000 ft 250° 250° 13 kt METAR EDAH 140120Z AUTO 25013KT 9999 // FEW032/// SCT140/// BKN190/// 17/12 Q1011
02:50
V
16 °C 10 km+ 21.000 ft 230° 230° 10 kt METAR EDAH 140050Z AUTO 23010KT 9999 // OVC210/// 16/12 Q1011
02:20
V
15 °C 10 km+ 22.000 ft 220° 220° 9 kt METAR EDAH 140020Z AUTO 22009KT 9999 // OVC220/// 15/12 Q1011
01:50
V
15 °C 10 km+ 21.000 ft 220° 220° 8 kt METAR EDAH 132350Z AUTO 22008KT 9999 // OVC210/// 15/12 Q1012
01:20
V
16 °C 10 km+ 21.000 ft 210° 210° 7 kt METAR EDAH 132320Z AUTO 21007KT 180V240 9999 // FEW072/// BKN210/// 16/12 Q1012
00:50
V
15 °C 10 km+ 22.000 ft 210° 210° 6 kt METAR EDAH 132250Z AUTO 21006KT 180V250 9999 // FEW072/// BKN220/// 15/11 Q1013
00:20
V
15 °C 10 km+ 13.000 ft 200° 200° 4 kt METAR EDAH 132220Z AUTO 20004KT 9999 // FEW078/// BKN130/// BKN220/// 15/11 Q1013

13 de abril de 2024

Hora Código Clima Temp. Visibilidade Tecto Vento METAR/SPECI
23:50
V
15 °C 10 km+ 13.000 ft 200° 200° 5 kt METAR EDAH 132150Z AUTO 20005KT 9999 // SCT085/// BKN130/// BKN240/// 15/11 Q1014
23:20
V
15 °C 10 km+ 21.000 ft 190° 190° 6 kt METAR EDAH 132120Z AUTO 19006KT 170V230 9999 // FEW080/// SCT140/// OVC210/// 15/10 Q1015
22:50
V
15 °C 10 km+ 5.600 ft 190° 190° 5 kt METAR EDAH 132050Z AUTO 19005KT 9999 // SCT049/// BKN056/// BKN200/// 15/10 Q1015
22:20
V
15 °C 10 km+ 20.000 ft 200° 200° 4 kt METAR EDAH 132020Z AUTO 20004KT 9999 // FEW052/// BKN200/// 15/09 Q1016
21:50
V
16 °C 10 km+ 12.000 ft 210° 210° 5 kt METAR EDAH 131950Z AUTO 21005KT 9999 // SCT052/// BKN120/// OVC200/// 16/09 Q1016
21:20
V
16 °C 10 km+ 13.000 ft 210° 210° 6 kt METAR EDAH 131920Z AUTO 21006KT 9999 // BKN130/// OVC200/// 16/09 Q1017
20:50
V
16 °C 10 km+ 20.000 ft 210° 210° 6 kt METAR EDAH 131850Z AUTO 21006KT 9999 // FEW130/// OVC200/// 16/09 Q1017
20:20
V
17 °C 10 km+ 21.000 ft 230° 230° 6 kt METAR EDAH 131820Z AUTO 23006KT 9999 // BKN210/// 17/10 Q1017
19:50
V
17 °C 10 km+ 21.000 ft 230° 230° 5 kt METAR EDAH 131750Z AUTO 23005KT 9999 // BKN210/// 17/10 Q1017
19:20
V
18 °C 10 km+ 21.000 ft 240° 240° 6 kt METAR EDAH 131720Z AUTO 24006KT 9999 // OVC210/// 18/10 Q1018
18:50
V
18 °C 10 km+ - 250° 250° 8 kt METAR EDAH 131650Z 25008KT CAVOK 18/10 Q1018
18:20
V
19 °C 10 km+ - 250° 250° 9 kt METAR EDAH 131620Z 25009KT CAVOK 19/11 Q1018
17:50
V
19 °C 10 km+ - 250° 250° 8 kt METAR EDAH 131550Z 25008KT CAVOK 19/11 Q1019
17:20
V
19 °C 10 km+ - 260° 260° 11 kt METAR EDAH 131520Z 26011KT CAVOK 19/11 Q1019
16:50
V
19 °C 10 km+ - 260° 260° 12 kt METAR EDAH 131450Z 26012KT CAVOK 19/11 Q1019
16:20
V
19 °C 10 km+ - 260° 260° 14 kt METAR EDAH 131420Z 26014KT 9999 SCT040 19/11 Q1020
15:50
V
19 °C 10 km+ - 260° 260° 13 kt METAR EDAH 131350Z 26013KT 9999 FEW042 19/11 Q1020
15:20
V
19 °C 10 km+ - 260° 260° 15 kt METAR EDAH 131320Z 26015KT 9999 SCT041 19/11 Q1020
14:50
V
19 °C 10 km+ - 260° 260° 14 kt METAR EDAH 131250Z 26014KT 9999 SCT036 19/11 Q1021
14:20
V
20 °C 10 km+ - 240° 240° 12 kt METAR EDAH 131220Z 24012KT 9999 FEW033 20/12 Q1021
13:50
V
19 °C 10 km+ - 240° 240° 13 kt METAR EDAH 131150Z 24013KT 9999 SCT032 19/13 Q1021
13:20
V
18 °C 10 km+ - 240° 240° 11 kt METAR EDAH 131120Z 24011KT 210V270 9999 SCT034 18/12 Q1021
12:50
V
18 °C 10 km+ - 240° 240° 10 kt METAR EDAH 131050Z 24010KT CAVOK 18/12 Q1021
12:20
V
18 °C 10 km+ - 250° 250° 11 kt METAR EDAH 131020Z 25011KT CAVOK 18/12 Q1022
11:50
V
17 °C 10 km+ - 240° 240° 11 kt METAR EDAH 130950Z 24011KT CAVOK 17/11 Q1022
11:20
V
17 °C 10 km+ - 250° 250° 10 kt METAR EDAH 130920Z 25010KT CAVOK 17/11 Q1022
10:50
V
16 °C 10 km+ - 240° 240° 12 kt METAR EDAH 130850Z 24012KT CAVOK 16/11 Q1022
10:20
V
15 °C 10 km+ - 240° 240° 8 kt METAR EDAH 130820Z 24008KT CAVOK 15/11 Q1022
09:50
V
14 °C 10 km+ - 240° 240° 8 kt METAR EDAH 130750Z 24008KT 210V270 CAVOK 14/11 Q1022
09:20
V
13 °C 10 km+ - 240° 240° 8 kt METAR EDAH 130720Z 24008KT CAVOK 13/10 Q1022
08:50
V
12 °C 10 km+ - 250° 250° 8 kt METAR EDAH 130650Z 25008KT CAVOK 12/10 Q1022
08:20
V
12 °C 10 km+ - 240° 240° 7 kt METAR EDAH 130620Z AUTO 24007KT 9999 // FEW240/// 12/10 Q1023
07:50
V
11 °C 10 km+ - 250° 250° 9 kt METAR EDAH 130550Z AUTO 25009KT 9999 // FEW240/// 11/09 Q1023
Relatar uma mudança